Main page
METAR-TAF:

METAR-TAF

Airports :

Aktion National Airport

Preveza, Greece

latitude: 38-37N, longitude: 020-46E, elevation: 4 m

Current weather observation

The report was made 35 minutes ago, at 09:50 UTC
Wind 12 kt from the West/Northwest
Temperature 28°C
Humidity 66%
Pressure 1009 hPa
Visibility 10 km or more
Few clouds at a height of 2000 ft

METAR: LGPZ 180950Z 29012KT 9999 FEW020 28/21 Q1009

Time: 13:25 (10:25 UTC)

Forecast

The report was made 5 hours and 25 minutes ago, at 05:00 UTC
Forecast valid from 18 at 06 UTC to 19 at 06 UTC
Wind 10 kt from the Northwest
Visibility 10 km or more
Few clouds at a height of 2000 ft
Temporary
from 18 at 08 UTC to 18 at 18 UTC
Wind 15 kt from the West with gusts up to 25 kt

TAF: LGPZ 180500Z 1806/1906 31010KT 9999 FEW020 TEMPO 1808/1818 28015G25KT

Weather observations and forecasts of more than 4000 airports (METAR and TAF reports).

The available stations are represented by yellow and red dots on the map.

Hover mouse over dot to see the name of the station.

Then click to see weather observations and forecasts.

To change the map : click on the green buttons with a black cross to zoom in, on the green button with a dash to zoom out, or on the green arrows for adjacent maps.


METAR-TAF: